sensor_id;sensor_type;location;lat;lon;timestamp;P1;durP1;ratioP1;P2;durP2;ratioP2
69392;SDS011;56582;44.624;20.378;2023-06-01T00:01:28;16.90;;;9.85;;
69392;SDS011;56582;44.624;20.378;2023-06-01T00:04:01;18.73;;;10.17;;
69392;SDS011;56582;44.624;20.378;2023-06-01T00:06:26;18.23;;;11.30;;
69392;SDS011;56582;44.624;20.378;2023-06-01T00:08:55;19.83;;;11.48;;
69392;SDS011;56582;44.624;20.378;2023-06-01T00:11:21;19.15;;;11.27;;
69392;SDS011;56582;44.624;20.378;2023-06-01T00:13:47;19.80;;;11.50;;
69392;SDS011;56582;44.624;20.378;2023-06-01T00:16:14;22.17;;;11.43;;
69392;SDS011;56582;44.624;20.378;2023-06-01T00:18:40;19.40;;;11.13;;
69392;SDS011;56582;44.624;20.378;2023-06-01T00:21:06;19.25;;;10.82;;
69392;SDS011;56582;44.624;20.378;2023-06-01T00:23:31;20.87;;;11.00;;
69392;SDS011;56582;44.624;20.378;2023-06-01T00:25:57;19.67;;;11.03;;
69392;SDS011;56582;44.624;20.378;2023-06-01T00:28:23;19.80;;;10.95;;
69392;SDS011;56582;44.624;20.378;2023-06-01T00:30:48;20.00;;;11.10;;
69392;SDS011;56582;44.624;20.378;2023-06-01T00:33:14;17.65;;;11.00;;
69392;SDS011;56582;44.624;20.378;2023-06-01T00:35:40;19.07;;;11.33;;
69392;SDS011;56582;44.624;20.378;2023-06-01T00:38:06;19.75;;;11.27;;
69392;SDS011;56582;44.624;20.378;2023-06-01T00:40:32;18.15;;;10.57;;
69392;SDS011;56582;44.624;20.378;2023-06-01T00:42:58;18.58;;;11.07;;
69392;SDS011;56582;44.624;20.378;2023-06-01T00:45:23;17.70;;;11.47;;
69392;SDS011;56582;44.624;20.378;2023-06-01T00:47:49;21.33;;;11.50;;
69392;SDS011;56582;44.624;20.378;2023-06-01T00:50:14;19.40;;;12.65;;
69392;SDS011;56582;44.624;20.378;2023-06-01T00:52:40;22.67;;;12.40;;
69392;SDS011;56582;44.624;20.378;2023-06-01T00:55:07;21.35;;;11.52;;
69392;SDS011;56582;44.624;20.378;2023-06-01T00:57:34;18.58;;;11.48;;
69392;SDS011;56582;44.624;20.378;2023-06-01T01:00:01;21.67;;;11.80;;
69392;SDS011;56582;44.624;20.378;2023-06-01T01:02:33;18.23;;;11.02;;
69392;SDS011;56582;44.624;20.378;2023-06-01T01:05:04;19.17;;;11.80;;
69392;SDS011;56582;44.624;20.378;2023-06-01T01:07:58;22.87;;;12.53;;
69392;SDS011;56582;44.624;20.378;2023-06-01T01:13:20;23.25;;;12.38;;
69392;SDS011;56582;44.624;20.378;2023-06-01T01:18:36;21.98;;;12.70;;
69392;SDS011;56582;44.624;20.378;2023-06-01T01:21:07;19.67;;;12.23;;
69392;SDS011;56582;44.624;20.378;2023-06-01T01:29:15;24.70;;;14.85;;
69392;SDS011;56582;44.624;20.378;2023-06-01T01:31:41;23.53;;;12.30;;
69392;SDS011;56582;44.624;20.378;2023-06-01T01:34:07;21.27;;;12.60;;
69392;SDS011;56582;44.624;20.378;2023-06-01T01:36:34;26.58;;;13.57;;
69392;SDS011;56582;44.624;20.378;2023-06-01T01:39:01;24.15;;;14.02;;
69392;SDS011;56582;44.624;20.378;2023-06-01T01:41:27;22.95;;;13.38;;
69392;SDS011;56582;44.624;20.378;2023-06-01T01:43:52;23.93;;;12.90;;
69392;SDS011;56582;44.624;20.378;2023-06-01T01:52:04;18.88;;;11.88;;
69392;SDS011;56582;44.624;20.378;2023-06-01T01:54:34;20.17;;;11.68;;
69392;SDS011;56582;44.624;20.378;2023-06-01T01:57:03;14.13;;;9.55;;
69392;SDS011;56582;44.624;20.378;2023-06-01T01:59:30;18.50;;;10.25;;
69392;SDS011;56582;44.624;20.378;2023-06-01T02:01:56;31.60;;;14.40;;
69392;SDS011;56582;44.624;20.378;2023-06-01T02:04:22;25.63;;;13.05;;
69392;SDS011;56582;44.624;20.378;2023-06-01T02:06:47;28.50;;;13.60;;
69392;SDS011;56582;44.624;20.378;2023-06-01T02:09:13;26.93;;;14.17;;
69392;SDS011;56582;44.624;20.378;2023-06-01T02:11:38;28.08;;;13.73;;
69392;SDS011;56582;44.624;20.378;2023-06-01T02:14:04;24.70;;;13.30;;
69392;SDS011;56582;44.624;20.378;2023-06-01T02:16:30;22.80;;;12.73;;
69392;SDS011;56582;44.624;20.378;2023-06-01T02:18:55;22.57;;;12.10;;
69392;SDS011;56582;44.624;20.378;2023-06-01T02:21:22;19.90;;;11.77;;
69392;SDS011;56582;44.624;20.378;2023-06-01T02:23:48;20.53;;;10.57;;
69392;SDS011;56582;44.624;20.378;2023-06-01T02:26:14;19.98;;;7.60;;
69392;SDS011;56582;44.624;20.378;2023-06-01T02:28:39;18.93;;;11.67;;
69392;SDS011;56582;44.624;20.378;2023-06-01T02:31:08;15.88;;;9.93;;
69392;SDS011;56582;44.624;20.378;2023-06-01T02:33:34;16.52;;;9.55;;
69392;SDS011;56582;44.624;20.378;2023-06-01T02:36:00;15.20;;;8.07;;
69392;SDS011;56582;44.624;20.378;2023-06-01T02:38:25;16.23;;;10.38;;
69392;SDS011;56582;44.624;20.378;2023-06-01T02:40:51;16.87;;;9.87;;
69392;SDS011;56582;44.624;20.378;2023-06-01T02:43:16;16.67;;;10.68;;
69392;SDS011;56582;44.624;20.378;2023-06-01T02:45:42;16.43;;;9.77;;
69392;SDS011;56582;44.624;20.378;2023-06-01T02:48:07;14.00;;;8.53;;
69392;SDS011;56582;44.624;20.378;2023-06-01T02:50:33;16.87;;;9.53;;
69392;SDS011;56582;44.624;20.378;2023-06-01T02:52:58;15.13;;;9.70;;
69392;SDS011;56582;44.624;20.378;2023-06-01T02:55:23;15.57;;;9.73;;
69392;SDS011;56582;44.624;20.378;2023-06-01T02:57:49;17.90;;;9.47;;
69392;SDS011;56582;44.624;20.378;2023-06-01T03:00:15;15.00;;;9.17;;
69392;SDS011;56582;44.624;20.378;2023-06-01T03:02:43;12.27;;;8.63;;
69392;SDS011;56582;44.624;20.378;2023-06-01T03:05:10;14.65;;;8.55;;
69392;SDS011;56582;44.624;20.378;2023-06-01T03:07:42;14.00;;;6.57;;
69392;SDS011;56582;44.624;20.378;2023-06-01T03:10:11;11.75;;;5.63;;
69392;SDS011;56582;44.624;20.378;2023-06-01T03:12:37;13.47;;;7.03;;
69392;SDS011;56582;44.624;20.378;2023-06-01T03:15:03;17.63;;;9.35;;
69392;SDS011;56582;44.624;20.378;2023-06-01T03:17:30;12.77;;;7.88;;
69392;SDS011;56582;44.624;20.378;2023-06-01T03:19:56;14.80;;;8.23;;
69392;SDS011;56582;44.624;20.378;2023-06-01T03:22:22;11.27;;;7.83;;
69392;SDS011;56582;44.624;20.378;2023-06-01T03:24:47;17.43;;;9.97;;
69392;SDS011;56582;44.624;20.378;2023-06-01T03:27:17;15.73;;;9.17;;
69392;SDS011;56582;44.624;20.378;2023-06-01T03:29:44;13.70;;;8.40;;
69392;SDS011;56582;44.624;20.378;2023-06-01T03:32:10;16.15;;;6.00;;
69392;SDS011;56582;44.624;20.378;2023-06-01T03:34:36;17.17;;;5.80;;
69392;SDS011;56582;44.624;20.378;2023-06-01T03:37:04;11.30;;;5.57;;
69392;SDS011;56582;44.624;20.378;2023-06-01T03:39:30;10.95;;;7.80;;
69392;SDS011;56582;44.624;20.378;2023-06-01T03:41:59;13.98;;;9.68;;
69392;SDS011;56582;44.624;20.378;2023-06-01T03:44:25;15.37;;;4.23;;
69392;SDS011;56582;44.624;20.378;2023-06-01T03:46:51;16.73;;;4.07;;
69392;SDS011;56582;44.624;20.378;2023-06-01T03:49:16;15.50;;;9.13;;
69392;SDS011;56582;44.624;20.378;2023-06-01T03:51:42;12.95;;;9.20;;
69392;SDS011;56582;44.624;20.378;2023-06-01T03:54:08;13.93;;;9.10;;
69392;SDS011;56582;44.624;20.378;2023-06-01T03:56:33;15.30;;;9.98;;
69392;SDS011;56582;44.624;20.378;2023-06-01T03:58:59;15.60;;;10.60;;
69392;SDS011;56582;44.624;20.378;2023-06-01T04:01:25;15.02;;;9.77;;
69392;SDS011;56582;44.624;20.378;2023-06-01T04:03:54;14.73;;;10.35;;
69392;SDS011;56582;44.624;20.378;2023-06-01T04:06:20;15.77;;;10.00;;
69392;SDS011;56582;44.624;20.378;2023-06-01T04:08:46;16.80;;;9.98;;
69392;SDS011;56582;44.624;20.378;2023-06-01T04:11:16;17.75;;;11.48;;
69392;SDS011;56582;44.624;20.378;2023-06-01T04:13:42;18.15;;;10.75;;
69392;SDS011;56582;44.624;20.378;2023-06-01T04:16:08;17.13;;;11.50;;
69392;SDS011;56582;44.624;20.378;2023-06-01T04:18:34;17.70;;;10.88;;
69392;SDS011;56582;44.624;20.378;2023-06-01T04:21:00;20.42;;;10.88;;
69392;SDS011;56582;44.624;20.378;2023-06-01T04:23:25;15.47;;;10.47;;
69392;SDS011;56582;44.624;20.378;2023-06-01T04:25:51;17.03;;;10.70;;
69392;SDS011;56582;44.624;20.378;2023-06-01T04:28:17;18.90;;;10.85;;
69392;SDS011;56582;44.624;20.378;2023-06-01T04:30:42;18.30;;;10.63;;
69392;SDS011;56582;44.624;20.378;2023-06-01T04:33:16;17.58;;;10.70;;
69392;SDS011;56582;44.624;20.378;2023-06-01T04:35:42;17.55;;;11.27;;
69392;SDS011;56582;44.624;20.378;2023-06-01T04:38:08;17.53;;;11.23;;
69392;SDS011;56582;44.624;20.378;2023-06-01T04:40:34;17.90;;;11.15;;
69392;SDS011;56582;44.624;20.378;2023-06-01T04:42:59;23.80;;;11.60;;
69392;SDS011;56582;44.624;20.378;2023-06-01T04:45:27;16.90;;;11.32;;
69392;SDS011;56582;44.624;20.378;2023-06-01T04:47:55;16.60;;;11.32;;
69392;SDS011;56582;44.624;20.378;2023-06-01T04:50:22;19.80;;;12.50;;
69392;SDS011;56582;44.624;20.378;2023-06-01T04:52:48;18.27;;;11.13;;
69392;SDS011;56582;44.624;20.378;2023-06-01T04:55:15;19.10;;;12.15;;
69392;SDS011;56582;44.624;20.378;2023-06-01T04:57:42;21.27;;;12.57;;
69392;SDS011;56582;44.624;20.378;2023-06-01T05:00:11;17.67;;;11.50;;
69392;SDS011;56582;44.624;20.378;2023-06-01T05:02:38;22.33;;;13.17;;
69392;SDS011;56582;44.624;20.378;2023-06-01T05:05:05;18.70;;;11.77;;
69392;SDS011;56582;44.624;20.378;2023-06-01T05:07:31;20.55;;;13.77;;
69392;SDS011;56582;44.624;20.378;2023-06-01T05:09:57;22.07;;;13.37;;
69392;SDS011;56582;44.624;20.378;2023-06-01T05:12:23;22.30;;;14.52;;
69392;SDS011;56582;44.624;20.378;2023-06-01T05:14:49;21.90;;;13.40;;
69392;SDS011;56582;44.624;20.378;2023-06-01T05:17:14;20.38;;;13.15;;
69392;SDS011;56582;44.624;20.378;2023-06-01T05:19:40;18.60;;;13.10;;
69392;SDS011;56582;44.624;20.378;2023-06-01T05:22:05;20.87;;;13.17;;
69392;SDS011;56582;44.624;20.378;2023-06-01T05:24:31;19.37;;;12.77;;
69392;SDS011;56582;44.624;20.378;2023-06-01T05:26:56;20.40;;;13.30;;
69392;SDS011;56582;44.624;20.378;2023-06-01T05:29:21;21.40;;;13.13;;
69392;SDS011;56582;44.624;20.378;2023-06-01T05:31:48;20.67;;;12.98;;
69392;SDS011;56582;44.624;20.378;2023-06-01T05:34:14;20.90;;;13.43;;
69392;SDS011;56582;44.624;20.378;2023-06-01T05:36:40;19.08;;;12.15;;
69392;SDS011;56582;44.624;20.378;2023-06-01T05:39:06;21.38;;;14.00;;
69392;SDS011;56582;44.624;20.378;2023-06-01T05:41:31;21.53;;;13.90;;
69392;SDS011;56582;44.624;20.378;2023-06-01T05:43:57;22.93;;;12.63;;
69392;SDS011;56582;44.624;20.378;2023-06-01T05:46:22;20.10;;;14.07;;
69392;SDS011;56582;44.624;20.378;2023-06-01T05:48:49;19.47;;;13.10;;
69392;SDS011;56582;44.624;20.378;2023-06-01T05:51:16;20.20;;;12.80;;
69392;SDS011;56582;44.624;20.378;2023-06-01T05:53:42;20.00;;;13.65;;
69392;SDS011;56582;44.624;20.378;2023-06-01T05:56:07;22.13;;;13.67;;
69392;SDS011;56582;44.624;20.378;2023-06-01T05:58:33;19.90;;;13.23;;
69392;SDS011;56582;44.624;20.378;2023-06-01T06:00:58;17.87;;;12.93;;
69392;SDS011;56582;44.624;20.378;2023-06-01T06:03:24;18.50;;;12.43;;
69392;SDS011;56582;44.624;20.378;2023-06-01T06:05:49;20.10;;;13.38;;
69392;SDS011;56582;44.624;20.378;2023-06-01T06:08:15;19.50;;;12.73;;
69392;SDS011;56582;44.624;20.378;2023-06-01T06:10:41;20.35;;;12.45;;
69392;SDS011;56582;44.624;20.378;2023-06-01T06:13:06;22.43;;;14.37;;
69392;SDS011;56582;44.624;20.378;2023-06-01T06:15:32;20.00;;;13.50;;
69392;SDS011;56582;44.624;20.378;2023-06-01T06:17:57;21.10;;;13.97;;
69392;SDS011;56582;44.624;20.378;2023-06-01T06:20:23;20.77;;;13.50;;
69392;SDS011;56582;44.624;20.378;2023-06-01T06:22:49;23.67;;;13.90;;
69392;SDS011;56582;44.624;20.378;2023-06-01T06:25:16;22.13;;;13.67;;
69392;SDS011;56582;44.624;20.378;2023-06-01T06:27:41;22.45;;;13.88;;
69392;SDS011;56582;44.624;20.378;2023-06-01T06:30:07;20.67;;;13.33;;
69392;SDS011;56582;44.624;20.378;2023-06-01T06:32:33;19.35;;;11.82;;
69392;SDS011;56582;44.624;20.378;2023-06-01T06:34:59;21.93;;;13.20;;
69392;SDS011;56582;44.624;20.378;2023-06-01T06:37:25;20.25;;;13.98;;
69392;SDS011;56582;44.624;20.378;2023-06-01T06:39:50;19.83;;;13.73;;
69392;SDS011;56582;44.624;20.378;2023-06-01T06:42:16;22.83;;;13.93;;
69392;SDS011;56582;44.624;20.378;2023-06-01T06:44:41;22.17;;;14.73;;
69392;SDS011;56582;44.624;20.378;2023-06-01T06:47:06;22.90;;;14.40;;
69392;SDS011;56582;44.624;20.378;2023-06-01T06:49:32;21.10;;;12.83;;
69392;SDS011;56582;44.624;20.378;2023-06-01T06:51:58;23.52;;;14.40;;
69392;SDS011;56582;44.624;20.378;2023-06-01T06:54:23;22.40;;;15.23;;
69392;SDS011;56582;44.624;20.378;2023-06-01T06:56:49;21.80;;;13.90;;
69392;SDS011;56582;44.624;20.378;2023-06-01T06:59:14;23.50;;;15.05;;
69392;SDS011;56582;44.624;20.378;2023-06-01T07:01:40;23.47;;;14.77;;
69392;SDS011;56582;44.624;20.378;2023-06-01T07:04:06;22.00;;;14.18;;
69392;SDS011;56582;44.624;20.378;2023-06-01T07:06:32;22.10;;;14.03;;
69392;SDS011;56582;44.624;20.378;2023-06-01T07:08:58;22.77;;;15.20;;
69392;SDS011;56582;44.624;20.378;2023-06-01T07:11:23;21.45;;;14.13;;
69392;SDS011;56582;44.624;20.378;2023-06-01T07:13:49;20.77;;;13.10;;
69392;SDS011;56582;44.624;20.378;2023-06-01T07:16:15;21.10;;;13.87;;
69392;SDS011;56582;44.624;20.378;2023-06-01T07:18:40;18.77;;;13.38;;
69392;SDS011;56582;44.624;20.378;2023-06-01T07:21:06;23.17;;;14.02;;
69392;SDS011;56582;44.624;20.378;2023-06-01T07:23:31;19.13;;;13.67;;
69392;SDS011;56582;44.624;20.378;2023-06-01T07:25:57;22.17;;;14.53;;
69392;SDS011;56582;44.624;20.378;2023-06-01T07:28:22;23.17;;;15.40;;
69392;SDS011;56582;44.624;20.378;2023-06-01T07:30:50;24.30;;;16.05;;
69392;SDS011;56582;44.624;20.378;2023-06-01T07:33:16;21.50;;;14.38;;
69392;SDS011;56582;44.624;20.378;2023-06-01T07:35:42;25.15;;;14.52;;
69392;SDS011;56582;44.624;20.378;2023-06-01T07:38:08;23.17;;;15.23;;
69392;SDS011;56582;44.624;20.378;2023-06-01T07:40:34;22.95;;;15.68;;
69392;SDS011;56582;44.624;20.378;2023-06-01T07:43:00;18.80;;;12.95;;
69392;SDS011;56582;44.624;20.378;2023-06-01T07:45:25;18.67;;;12.37;;
69392;SDS011;56582;44.624;20.378;2023-06-01T07:47:51;16.70;;;11.63;;
69392;SDS011;56582;44.624;20.378;2023-06-01T07:50:18;18.95;;;12.35;;
69392;SDS011;56582;44.624;20.378;2023-06-01T07:52:44;15.68;;;11.85;;
69392;SDS011;56582;44.624;20.378;2023-06-01T07:55:10;17.63;;;11.90;;
69392;SDS011;56582;44.624;20.378;2023-06-01T07:57:36;16.42;;;10.98;;
69392;SDS011;56582;44.624;20.378;2023-06-01T08:00:01;14.87;;;10.70;;
69392;SDS011;56582;44.624;20.378;2023-06-01T08:02:32;17.05;;;11.27;;
69392;SDS011;56582;44.624;20.378;2023-06-01T08:04:58;18.10;;;11.83;;
69392;SDS011;56582;44.624;20.378;2023-06-01T08:07:24;18.63;;;12.60;;
69392;SDS011;56582;44.624;20.378;2023-06-01T08:09:53;18.67;;;10.95;;
69392;SDS011;56582;44.624;20.378;2023-06-01T08:12:18;20.08;;;11.85;;
69392;SDS011;56582;44.624;20.378;2023-06-01T08:14:44;20.40;;;12.47;;
69392;SDS011;56582;44.624;20.378;2023-06-01T08:17:10;22.47;;;12.93;;
69392;SDS011;56582;44.624;20.378;2023-06-01T08:19:36;21.63;;;12.88;;
69392;SDS011;56582;44.624;20.378;2023-06-01T08:22:02;23.13;;;13.27;;
69392;SDS011;56582;44.624;20.378;2023-06-01T08:24:29;20.00;;;12.73;;
69392;SDS011;56582;44.624;20.378;2023-06-01T08:26:57;24.23;;;13.75;;
69392;SDS011;56582;44.624;20.378;2023-06-01T08:29:23;25.27;;;13.85;;
69392;SDS011;56582;44.624;20.378;2023-06-01T08:31:48;24.13;;;14.33;;
69392;SDS011;56582;44.624;20.378;2023-06-01T08:34:14;22.90;;;13.15;;
69392;SDS011;56582;44.624;20.378;2023-06-01T08:36:39;25.47;;;13.87;;
69392;SDS011;56582;44.624;20.378;2023-06-01T08:39:19;25.20;;;13.80;;
69392;SDS011;56582;44.624;20.378;2023-06-01T08:44:22;22.50;;;12.43;;
69392;SDS011;56582;44.624;20.378;2023-06-01T08:46:52;23.02;;;12.65;;
69392;SDS011;56582;44.624;20.378;2023-06-01T08:49:19;24.42;;;13.40;;
69392;SDS011;56582;44.624;20.378;2023-06-01T08:51:45;24.90;;;13.37;;
69392;SDS011;56582;44.624;20.378;2023-06-01T08:54:16;27.25;;;13.65;;
69392;SDS011;56582;44.624;20.378;2023-06-01T08:56:41;25.50;;;13.98;;
69392;SDS011;56582;44.624;20.378;2023-06-01T08:59:08;25.90;;;14.03;;
69392;SDS011;56582;44.624;20.378;2023-06-01T09:01:36;27.88;;;14.30;;
69392;SDS011;56582;44.624;20.378;2023-06-01T09:04:03;29.13;;;15.13;;
69392;SDS011;56582;44.624;20.378;2023-06-01T09:06:28;24.90;;;14.13;;
69392;SDS011;56582;44.624;20.378;2023-06-01T09:08:54;25.07;;;13.83;;
69392;SDS011;56582;44.624;20.378;2023-06-01T09:11:19;25.37;;;14.97;;
69392;SDS011;56582;44.624;20.378;2023-06-01T09:13:45;24.85;;;13.65;;
69392;SDS011;56582;44.624;20.378;2023-06-01T09:16:10;22.67;;;14.03;;
69392;SDS011;56582;44.624;20.378;2023-06-01T09:18:36;26.23;;;14.68;;
69392;SDS011;56582;44.624;20.378;2023-06-01T09:21:16;27.08;;;15.30;;
69392;SDS011;56582;44.624;20.378;2023-06-01T09:23:42;26.20;;;15.37;;
69392;SDS011;56582;44.624;20.378;2023-06-01T09:26:14;25.27;;;14.00;;
69392;SDS011;56582;44.624;20.378;2023-06-01T09:34:13;25.90;;;15.27;;
69392;SDS011;56582;44.624;20.378;2023-06-01T09:36:46;26.27;;;15.77;;
69392;SDS011;56582;44.624;20.378;2023-06-01T09:39:16;24.00;;;14.48;;
69392;SDS011;56582;44.624;20.378;2023-06-01T09:44:22;22.83;;;14.85;;
69392;SDS011;56582;44.624;20.378;2023-06-01T09:46:52;28.73;;;15.18;;
69392;SDS011;56582;44.624;20.378;2023-06-01T09:49:23;25.25;;;15.63;;
69392;SDS011;56582;44.624;20.378;2023-06-01T09:56:56;20.80;;;14.03;;
69392;SDS011;56582;44.624;20.378;2023-06-01T09:59:23;21.40;;;13.93;;
69392;SDS011;56582;44.624;20.378;2023-06-01T10:01:53;18.90;;;11.85;;
69392;SDS011;56582;44.624;20.378;2023-06-01T10:04:21;19.15;;;12.32;;
69392;SDS011;56582;44.624;20.378;2023-06-01T10:06:49;19.75;;;13.07;;
69392;SDS011;56582;44.624;20.378;2023-06-01T10:09:19;22.70;;;14.45;;
69392;SDS011;56582;44.624;20.378;2023-06-01T10:11:49;22.70;;;14.13;;
69392;SDS011;56582;44.624;20.378;2023-06-01T10:14:18;20.67;;;13.20;;
69392;SDS011;56582;44.624;20.378;2023-06-01T10:16:48;21.52;;;13.85;;
69392;SDS011;56582;44.624;20.378;2023-06-01T10:19:15;22.10;;;14.05;;
69392;SDS011;56582;44.624;20.378;2023-06-01T10:21:41;20.40;;;13.93;;
69392;SDS011;56582;44.624;20.378;2023-06-01T10:24:09;22.70;;;13.35;;
69392;SDS011;56582;44.624;20.378;2023-06-01T10:29:36;21.85;;;13.38;;
69392;SDS011;56582;44.624;20.378;2023-06-01T10:32:02;21.80;;;14.25;;
69392;SDS011;56582;44.624;20.378;2023-06-01T10:34:37;20.33;;;13.23;;
69392;SDS011;56582;44.624;20.378;2023-06-01T10:39:29;18.57;;;12.80;;
69392;SDS011;56582;44.624;20.378;2023-06-01T10:41:56;22.90;;;13.18;;
69392;SDS011;56582;44.624;20.378;2023-06-01T10:52:26;20.93;;;13.57;;
69392;SDS011;56582;44.624;20.378;2023-06-01T10:54:53;22.67;;;14.93;;
69392;SDS011;56582;44.624;20.378;2023-06-01T11:13:16;16.15;;;11.98;;
69392;SDS011;56582;44.624;20.378;2023-06-01T11:18:41;15.20;;;11.17;;
69392;SDS011;56582;44.624;20.378;2023-06-01T11:21:27;16.58;;;11.35;;
69392;SDS011;56582;44.624;20.378;2023-06-01T11:24:06;14.63;;;10.65;;
69392;SDS011;56582;44.624;20.378;2023-06-01T11:26:51;15.10;;;10.27;;
69392;SDS011;56582;44.624;20.378;2023-06-01T11:29:18;13.75;;;10.25;;
69392;SDS011;56582;44.624;20.378;2023-06-01T11:31:55;13.47;;;9.90;;
69392;SDS011;56582;44.624;20.378;2023-06-01T11:34:41;13.57;;;8.95;;
69392;SDS011;56582;44.624;20.378;2023-06-01T11:37:12;14.25;;;9.93;;
69392;SDS011;56582;44.624;20.378;2023-06-01T11:39:40;11.18;;;8.25;;
69392;SDS011;56582;44.624;20.378;2023-06-01T11:44:42;11.30;;;8.37;;
69392;SDS011;56582;44.624;20.378;2023-06-01T11:47:08;10.77;;;8.55;;
69392;SDS011;56582;44.624;20.378;2023-06-01T11:49:48;13.60;;;9.35;;
69392;SDS011;56582;44.624;20.378;2023-06-01T11:52:18;10.05;;;7.50;;
69392;SDS011;56582;44.624;20.378;2023-06-01T11:54:44;10.68;;;7.70;;
69392;SDS011;56582;44.624;20.378;2023-06-01T11:57:11;12.73;;;8.50;;
69392;SDS011;56582;44.624;20.378;2023-06-01T11:59:40;12.75;;;8.68;;
69392;SDS011;56582;44.624;20.378;2023-06-01T12:07:23;10.60;;;8.50;;
69392;SDS011;56582;44.624;20.378;2023-06-01T12:09:50;12.27;;;8.43;;
69392;SDS011;56582;44.624;20.378;2023-06-01T12:12:19;12.27;;;7.78;;
69392;SDS011;56582;44.624;20.378;2023-06-01T12:14:47;13.60;;;7.85;;
69392;SDS011;56582;44.624;20.378;2023-06-01T12:17:14;11.35;;;7.55;;
69392;SDS011;56582;44.624;20.378;2023-06-01T12:19:48;14.10;;;8.47;;
69392;SDS011;56582;44.624;20.378;2023-06-01T12:22:15;11.65;;;7.55;;
69392;SDS011;56582;44.624;20.378;2023-06-01T12:24:41;10.45;;;7.57;;
69392;SDS011;56582;44.624;20.378;2023-06-01T12:27:18;11.77;;;7.30;;
69392;SDS011;56582;44.624;20.378;2023-06-01T12:29:47;10.23;;;6.77;;
69392;SDS011;56582;44.624;20.378;2023-06-01T12:32:15;8.80;;;6.07;;
69392;SDS011;56582;44.624;20.378;2023-06-01T12:34:43;9.07;;;6.60;;
69392;SDS011;56582;44.624;20.378;2023-06-01T12:39:40;9.93;;;6.95;;
69392;SDS011;56582;44.624;20.378;2023-06-01T12:42:06;10.07;;;6.83;;
69392;SDS011;56582;44.624;20.378;2023-06-01T12:44:33;8.60;;;6.35;;
69392;SDS011;56582;44.624;20.378;2023-06-01T12:46:59;8.30;;;5.88;;
69392;SDS011;56582;44.624;20.378;2023-06-01T12:49:29;9.20;;;6.03;;
69392;SDS011;56582;44.624;20.378;2023-06-01T12:51:54;9.20;;;5.70;;
69392;SDS011;56582;44.624;20.378;2023-06-01T12:54:20;8.35;;;6.13;;
69392;SDS011;56582;44.624;20.378;2023-06-01T12:56:49;8.97;;;5.20;;
69392;SDS011;56582;44.624;20.378;2023-06-01T12:59:15;8.77;;;4.95;;
69392;SDS011;56582;44.624;20.378;2023-06-01T13:01:42;8.60;;;4.88;;
69392;SDS011;56582;44.624;20.378;2023-06-01T13:04:07;7.27;;;4.90;;
69392;SDS011;56582;44.624;20.378;2023-06-01T13:06:34;8.77;;;5.68;;
69392;SDS011;56582;44.624;20.378;2023-06-01T13:09:00;8.13;;;5.23;;
69392;SDS011;56582;44.624;20.378;2023-06-01T13:11:26;8.37;;;5.90;;
69392;SDS011;56582;44.624;20.378;2023-06-01T13:13:52;9.25;;;6.55;;
69392;SDS011;56582;44.624;20.378;2023-06-01T13:16:18;8.00;;;6.40;;
69392;SDS011;56582;44.624;20.378;2023-06-01T13:18:44;9.15;;;7.22;;
69392;SDS011;56582;44.624;20.378;2023-06-01T13:21:12;8.80;;;6.10;;
69392;SDS011;56582;44.624;20.378;2023-06-01T13:23:38;9.93;;;6.55;;
69392;SDS011;56582;44.624;20.378;2023-06-01T13:26:04;10.30;;;6.20;;
69392;SDS011;56582;44.624;20.378;2023-06-01T13:28:29;8.95;;;6.20;;
69392;SDS011;56582;44.624;20.378;2023-06-01T13:30:55;9.53;;;6.63;;
69392;SDS011;56582;44.624;20.378;2023-06-01T13:33:20;9.53;;;6.57;;
69392;SDS011;56582;44.624;20.378;2023-06-01T13:35:46;9.10;;;6.28;;
69392;SDS011;56582;44.624;20.378;2023-06-01T13:38:12;9.25;;;6.88;;
69392;SDS011;56582;44.624;20.378;2023-06-01T13:40:38;8.77;;;5.83;;
69392;SDS011;56582;44.624;20.378;2023-06-01T13:43:03;11.20;;;6.77;;
69392;SDS011;56582;44.624;20.378;2023-06-01T13:45:29;9.05;;;6.38;;
69392;SDS011;56582;44.624;20.378;2023-06-01T13:47:55;9.93;;;6.30;;
69392;SDS011;56582;44.624;20.378;2023-06-01T13:50:20;11.65;;;6.20;;
69392;SDS011;56582;44.624;20.378;2023-06-01T13:52:46;9.53;;;6.13;;
69392;SDS011;56582;44.624;20.378;2023-06-01T13:55:11;10.03;;;6.90;;
69392;SDS011;56582;44.624;20.378;2023-06-01T13:57:37;9.00;;;6.55;;
69392;SDS011;56582;44.624;20.378;2023-06-01T14:00:05;8.75;;;4.15;;
69392;SDS011;56582;44.624;20.378;2023-06-01T14:02:33;5.55;;;3.13;;
69392;SDS011;56582;44.624;20.378;2023-06-01T14:04:59;6.70;;;4.17;;
69392;SDS011;56582;44.624;20.378;2023-06-01T14:07:25;8.20;;;3.92;;
69392;SDS011;56582;44.624;20.378;2023-06-01T14:09:50;7.10;;;3.93;;
69392;SDS011;56582;44.624;20.378;2023-06-01T14:12:16;7.00;;;4.13;;
69392;SDS011;56582;44.624;20.378;2023-06-01T14:14:41;5.67;;;3.40;;
69392;SDS011;56582;44.624;20.378;2023-06-01T14:17:07;5.97;;;3.77;;
69392;SDS011;56582;44.624;20.378;2023-06-01T14:19:32;6.67;;;3.70;;
69392;SDS011;56582;44.624;20.378;2023-06-01T14:21:57;5.47;;;4.13;;
69392;SDS011;56582;44.624;20.378;2023-06-01T14:24:23;5.33;;;3.80;;
69392;SDS011;56582;44.624;20.378;2023-06-01T14:26:48;5.43;;;3.13;;
69392;SDS011;56582;44.624;20.378;2023-06-01T14:29:14;6.73;;;2.50;;
69392;SDS011;56582;44.624;20.378;2023-06-01T14:31:40;5.85;;;3.28;;
69392;SDS011;56582;44.624;20.378;2023-06-01T14:34:05;4.97;;;3.40;;
69392;SDS011;56582;44.624;20.378;2023-06-01T14:36:31;5.73;;;3.10;;
69392;SDS011;56582;44.624;20.378;2023-06-01T14:38:56;5.28;;;2.83;;
69392;SDS011;56582;44.624;20.378;2023-06-01T14:41:22;4.97;;;2.70;;
69392;SDS011;56582;44.624;20.378;2023-06-01T14:43:47;7.03;;;3.00;;
69392;SDS011;56582;44.624;20.378;2023-06-01T14:46:13;11.95;;;2.88;;
69392;SDS011;56582;44.624;20.378;2023-06-01T14:48:38;6.33;;;2.40;;
69392;SDS011;56582;44.624;20.378;2023-06-01T14:51:03;4.73;;;2.57;;
69392;SDS011;56582;44.624;20.378;2023-06-01T14:53:29;5.90;;;2.13;;
69392;SDS011;56582;44.624;20.378;2023-06-01T14:55:55;4.95;;;3.15;;
69392;SDS011;56582;44.624;20.378;2023-06-01T14:58:20;5.47;;;2.97;;
69392;SDS011;56582;44.624;20.378;2023-06-01T15:00:46;4.88;;;2.85;;
69392;SDS011;56582;44.624;20.378;2023-06-01T15:03:12;4.88;;;2.38;;
69392;SDS011;56582;44.624;20.378;2023-06-01T15:05:37;5.77;;;3.00;;
69392;SDS011;56582;44.624;20.378;2023-06-01T15:08:04;3.97;;;2.20;;
69392;SDS011;56582;44.624;20.378;2023-06-01T15:10:30;5.43;;;2.03;;
69392;SDS011;56582;44.624;20.378;2023-06-01T15:12:56;6.20;;;3.67;;
69392;SDS011;56582;44.624;20.378;2023-06-01T15:15:21;6.57;;;3.80;;
69392;SDS011;56582;44.624;20.378;2023-06-01T15:17:47;7.00;;;3.75;;
69392;SDS011;56582;44.624;20.378;2023-06-01T15:20:12;5.93;;;3.70;;
69392;SDS011;56582;44.624;20.378;2023-06-01T15:22:37;6.77;;;4.33;;
69392;SDS011;56582;44.624;20.378;2023-06-01T15:25:03;5.90;;;4.07;;
69392;SDS011;56582;44.624;20.378;2023-06-01T15:27:29;7.55;;;4.60;;
69392;SDS011;56582;44.624;20.378;2023-06-01T15:29:55;7.28;;;4.53;;